Time;durP1;ratioP1;P1;durP2;ratioP2;P2;SDS_P1;SDS_P2;PMS_P1;PMS_P2;Temp;Humidity;BMP_temperature;BMP_pressure;BME280_temperature;BME280_humidity;BME280_pressure;Samples;Min_cycle;Max_cycle;Signal;HPM_P1;HPM_P2
2024/01/01 00:00:18;;;;;;;;;;;;;;;;;;5046594;28;5161;-66
2024/01/01 00:02:43;;;;;;;;;;;;;;;;;;5045550;28;2224;-65
2024/01/01 00:05:09;;;;;;;;;;;;;;;;;;5046473;28;5153;-64
2024/01/01 00:07:34;;;;;;;;;;;;;;;;;;5045919;28;4938;-64
2024/01/01 00:09:59;;;;;;;;;;;;;;;;;;5045710;28;4678;-69
2024/01/01 00:12:25;;;;;;;;;;;;;;;;;;5038942;28;5007;-63
2024/01/01 00:14:50;;;;;;;;;;;;;;;;;;5045674;28;3301;-66
2024/01/01 00:17:15;;;;;;;;;;;;;;;;;;5028273;28;4536;-65
2024/01/01 00:19:41;;;;;;;;;;;;;;;;;;5042455;28;4560;-67
2024/01/01 00:22:06;;;;;;;;;;;;;;;;;;5045726;28;5449;-64
2024/01/01 00:24:31;;;;;;;;;;;;;;;;;;5022182;28;4708;-63
2024/01/01 00:26:57;;;;;;;;;;;;;;;;;;5042530;28;5359;-63
2024/01/01 00:29:24;;;;;;;;;;;;;;;;;;5044210;28;4967;-65
2024/01/01 00:31:49;;;;;;;;;;;;;;;;;;5050009;28;5077;-65
2024/01/01 00:34:15;;;;;;;;;;;;;;;;;;5046429;28;4643;-74
2024/01/01 00:36:40;;;;;;;;;;;;;;;;;;5042425;28;4702;-69
2024/01/01 00:39:06;;;;;;;;;;;;;;;;;;5049270;28;2293;-64
2024/01/01 00:41:31;;;;;;;;;;;;;;;;;;5029536;28;4852;-66
2024/01/01 00:43:56;;;;;;;;;;;;;;;;;;5049400;28;5049;-66
2024/01/01 00:46:22;;;;;;;;;;;;;;;;;;5031442;28;4506;-63
2024/01/01 00:48:47;;;;;;;;;;;;;;;;;;5028892;28;5079;-66
2024/01/01 00:51:13;;;;;;;;;;;;;;;;;;5041137;28;1266;-66
2024/01/01 00:53:38;;;;;;;;;;;;;;;;;;5049715;28;5036;-66
2024/01/01 00:56:03;;;;;;;;;;;;;;;;;;5049297;28;5095;-67
2024/01/01 00:58:29;;;;;;;;;;;;;;;;;;5044299;28;5181;-71
2024/01/01 01:00:56;;;;;;;;;;;;;;;;;;5049804;28;4663;-66
2024/01/01 01:03:21;;;;;;;;;;;;;;;;;;5048150;28;4545;-66
2024/01/01 01:05:46;;;;;;;;;;;;;;;;;;5050287;28;1139;-64
2024/01/01 01:08:12;;;;;;;;;;;;;;;;;;5040377;28;5008;-71
2024/01/01 01:10:37;;;;;;;;;;;;;;;;;;5045372;28;4962;-63
2024/01/01 01:13:04;;;;;;;;;;;;;;;;;;5048970;28;5118;-66
2024/01/01 01:15:31;;;;;;;;;;;;;;;;;;5043249;28;5050;-66
2024/01/01 01:17:56;;;;;;;;;;;;;;;;;;5049539;28;1980;-65
2024/01/01 01:20:22;;;;;;;;;;;;;;;;;;5039913;28;5012;-66
2024/01/01 01:22:47;;;;;;;;;;;;;;;;;;5045409;28;5050;-69
2024/01/01 01:25:12;;;;;;;;;;;;;;;;;;5036403;28;5179;-64
2024/01/01 01:27:38;;;;;;;;;;;;;;;;;;5035428;28;5170;-65
2024/01/01 01:30:04;;;;;;;;;;;;;;;;;;5041110;28;3693;-67
2024/01/01 01:32:30;;;;;;;;;;;;;;;;;;5040720;28;4577;-65
2024/01/01 01:34:56;;;;;;;;;;;;;;;;;;5043931;28;4475;-64
2024/01/01 01:37:21;;;;;;;;;;;;;;;;;;5044047;28;4571;-65
2024/01/01 01:39:46;;;;;;;;;;;;;;;;;;5045818;28;5046;-64
2024/01/01 01:42:12;;;;;;;;;;;;;;;;;;5028737;28;3460;-63
2024/01/01 01:44:37;;;;;;;;;;;;;;;;;;5044620;28;4588;-64
2024/01/01 01:47:02;;;;;;;;;;;;;;;;;;5036013;28;5104;-67
2024/01/01 01:49:28;;;;;;;;;;;;;;;;;;5034098;28;4524;-64
2024/01/01 01:51:53;;;;;;;;;;;;;;;;;;5036654;28;6121;-65
2024/01/01 01:54:20;;;;;;;;;;;;;;;;;;5027728;28;5238;-65
2024/01/01 01:56:45;;;;;;;;;;;;;;;;;;5047553;28;1236;-63
2024/01/01 01:59:11;;;;;;;;;;;;;;;;;;5036484;28;4666;-62
2024/01/01 02:01:36;;;;;;;;;;;;;;;;;;5037163;28;4542;-64
2024/01/01 02:04:01;;;;;;;;;;;;;;;;;;5037784;28;5205;-63
2024/01/01 02:06:27;;;;;;;;;;;;;;;;;;5038937;28;4675;-64
2024/01/01 02:08:52;;;;;;;;;;;;;;;;;;5025922;28;3215;-64
2024/01/01 02:11:17;;;;;;;;;;;;;;;;;;5045266;28;4867;-63
2024/01/01 02:13:43;;;;;;;;;;;;;;;;;;5024060;28;5153;-65
2024/01/01 02:16:08;;;;;;;;;;;;;;;;;;5040631;28;5078;-64
2024/01/01 02:18:33;;;;;;;;;;;;;;;;;;5040818;28;5188;-65
2024/01/01 02:20:58;;;;;;;;;;;;;;;;;;5039602;28;3708;-63
2024/01/01 02:23:27;;;;;;;;;;;;;;;;;;5041808;28;4955;-66
2024/01/01 02:25:52;;;;;;;;;;;;;;;;;;5041290;28;5125;-66
2024/01/01 02:28:19;;;;;;;;;;;;;;;;;;5042402;28;5404;-63
2024/01/01 02:30:44;;;;;;;;;;;;;;;;;;5043569;28;5081;-65
2024/01/01 02:33:10;;;;;;;;;;;;;;;;;;5036807;28;3524;-69
2024/01/01 02:35:35;;;;;;;;;;;;;;;;;;5039825;28;4852;-63
2024/01/01 02:38:01;;;;;;;;;;;;;;;;;;5041830;28;5133;-74
2024/01/01 02:40:27;;;;;;;;;;;;;;;;;;5031541;28;5220;-62
2024/01/01 02:42:52;;;;;;;;;;;;;;;;;;5037190;28;4511;-63
2024/01/01 02:45:20;;;;;;;;;;;;;;;;;;5042630;28;5216;-69
2024/01/01 02:47:45;;;;;;;;;;;;;;;;;;5043596;28;3316;-64
2024/01/01 02:50:10;;;;;;;;;;;;;;;;;;5043538;28;4531;-64
2024/01/01 02:52:36;;;;;;;;;;;;;;;;;;5045880;28;5107;-65
2024/01/01 02:55:01;;;;;;;;;;;;;;;;;;5037022;28;5087;-72
2024/01/01 02:57:26;;;;;;;;;;;;;;;;;;5045726;28;4987;-62
2024/01/01 02:59:52;;;;;;;;;;;;;;;;;;5045418;28;3432;-63
2024/01/01 03:02:18;;;;;;;;;;;;;;;;;;5040239;28;5077;-63
2024/01/01 03:04:44;;;;;;;;;;;;;;;;;;5045533;28;4677;-63
2024/01/01 03:07:09;;;;;;;;;;;;;;;;;;5042718;28;4660;-63
2024/01/01 03:09:34;;;;;;;;;;;;;;;;;;5021096;28;4964;-62
2024/01/01 03:12:00;;;;;;;;;;;;;;;;;;5047757;28;1090;-63
2024/01/01 03:14:25;;;;;;;;;;;;;;;;;;5042717;28;5080;-63
2024/01/01 03:16:50;;;;;;;;;;;;;;;;;;5013370;28;5152;-66
2024/01/01 03:19:17;;;;;;;;;;;;;;;;;;5037549;28;5122;-63
2024/01/01 03:21:42;;;;;;;;;;;;;;;;;;5045842;28;5117;-61
2024/01/01 03:24:07;;;;;;;;;;;;;;;;;;5047463;28;1145;-62
2024/01/01 03:26:32;;;;;;;;;;;;;;;;;;5043466;28;5254;-63
2024/01/01 03:28:58;;;;;;;;;;;;;;;;;;5038489;28;5031;-63
2024/01/01 03:31:23;;;;;;;;;;;;;;;;;;5023953;28;5290;-64
2024/01/01 03:33:48;;;;;;;;;;;;;;;;;;5034853;28;5090;-66
2024/01/01 03:36:14;;;;;;;;;;;;;;;;;;5045987;28;4688;-68
2024/01/01 03:38:39;;;;;;;;;;;;;;;;;;5043133;28;3459;-64
2024/01/01 03:41:04;;;;;;;;;;;;;;;;;;5043503;28;5462;-63
2024/01/01 03:43:30;;;;;;;;;;;;;;;;;;5042757;28;4969;-64
2024/01/01 03:45:55;;;;;;;;;;;;;;;;;;5033689;28;4541;-63
2024/01/01 03:48:21;;;;;;;;;;;;;;;;;;5043314;28;5554;-64
2024/01/01 03:50:46;;;;;;;;;;;;;;;;;;5041571;28;3305;-64
2024/01/01 03:53:11;;;;;;;;;;;;;;;;;;5042906;28;4638;-65
2024/01/01 03:55:36;;;;;;;;;;;;;;;;;;5043346;28;5015;-63
2024/01/01 03:58:02;;;;;;;;;;;;;;;;;;5045219;28;4904;-64
2024/01/01 04:00:28;;;;;;;;;;;;;;;;;;5044937;28;5097;-63
2024/01/01 04:02:53;;;;;;;;;;;;;;;;;;5046285;28;1666;-63
2024/01/01 04:05:18;;;;;;;;;;;;;;;;;;5045346;28;5143;-62
2024/01/01 04:07:44;;;;;;;;;;;;;;;;;;5041599;28;5221;-63
2024/01/01 04:10:10;;;;;;;;;;;;;;;;;;5048465;28;5247;-61
2024/01/01 04:12:35;;;;;;;;;;;;;;;;;;5045389;28;5067;-63
2024/01/01 04:15:01;;;;;;;;;;;;;;;;;;5049985;28;1194;-61
2024/01/01 04:17:26;;;;;;;;;;;;;;;;;;5047999;28;4684;-63
2024/01/01 04:19:51;;;;;;;;;;;;;;;;;;5041399;28;5002;-63
2024/01/01 04:22:18;;;;;;;;;;;;;;;;;;5044695;28;5029;-61
2024/01/01 04:24:43;;;;;;;;;;;;;;;;;;5048259;28;5016;-64
2024/01/01 04:27:08;;;;;;;;;;;;;;;;;;5049302;28;5158;-64
2024/01/01 04:29:34;;;;;;;;;;;;;;;;;;5026391;28;5051;-61
2024/01/01 04:31:59;;;;;;;;;;;;;;;;;;5044849;28;4683;-62
2024/01/01 04:34:25;;;;;;;;;;;;;;;;;;5047049;28;4536;-60
2024/01/01 04:36:50;;;;;;;;;;;;;;;;;;5043291;28;5146;-62
2024/01/01 04:39:15;;;;;;;;;;;;;;;;;;5047388;28;4601;-74
2024/01/01 04:41:40;;;;;;;;;;;;;;;;;;5031896;28;3690;-64
2024/01/01 04:44:06;;;;;;;;;;;;;;;;;;5020850;28;4658;-62
2024/01/01 04:46:31;;;;;;;;;;;;;;;;;;5047972;28;4883;-63
2024/01/01 04:48:57;;;;;;;;;;;;;;;;;;5044918;28;5175;-61
2024/01/01 04:51:22;;;;;;;;;;;;;;;;;;5047223;28;5110;-61
2024/01/01 04:53:47;;;;;;;;;;;;;;;;;;5046695;28;3336;-65
2024/01/01 04:56:13;;;;;;;;;;;;;;;;;;5045167;28;4509;-63
2024/01/01 04:58:38;;;;;;;;;;;;;;;;;;5033499;28;5121;-63
2024/01/01 05:01:05;;;;;;;;;;;;;;;;;;5030546;28;4534;-69
2024/01/01 05:03:31;;;;;;;;;;;;;;;;;;5046908;28;4939;-64
2024/01/01 05:05:56;;;;;;;;;;;;;;;;;;5027142;28;3327;-64
2024/01/01 05:08:21;;;;;;;;;;;;;;;;;;5037791;28;5231;-64
2024/01/01 05:10:47;;;;;;;;;;;;;;;;;;5043673;28;5014;-64
2024/01/01 05:13:12;;;;;;;;;;;;;;;;;;5036730;28;5293;-63
2024/01/01 05:15:38;;;;;;;;;;;;;;;;;;5039689;28;5288;-64
2024/01/01 05:18:04;;;;;;;;;;;;;;;;;;5042759;28;3348;-66
2024/01/01 05:20:29;;;;;;;;;;;;;;;;;;5043411;28;4655;-63
2024/01/01 05:22:55;;;;;;;;;;;;;;;;;;5042697;28;4621;-64
2024/01/01 05:25:20;;;;;;;;;;;;;;;;;;5043854;28;4777;-64
2024/01/01 05:27:45;;;;;;;;;;;;;;;;;;5045337;28;5087;-64
2024/01/01 05:30:11;;;;;;;;;;;;;;;;;;5045702;28;3299;-65
2024/01/01 05:32:36;;;;;;;;;;;;;;;;;;5042262;28;5075;-64
2024/01/01 05:35:02;;;;;;;;;;;;;;;;;;5041215;28;5146;-64
2024/01/01 05:37:27;;;;;;;;;;;;;;;;;;5038466;28;4682;-64
2024/01/01 05:39:53;;;;;;;;;;;;;;;;;;5025179;28;5131;-65
2024/01/01 05:42:18;;;;;;;;;;;;;;;;;;5039564;28;5115;-65
2024/01/01 05:44:44;;;;;;;;;;;;;;;;;;5040157;28;3541;-64
2024/01/01 05:47:09;;;;;;;;;;;;;;;;;;5038904;28;5077;-64
2024/01/01 05:49:34;;;;;;;;;;;;;;;;;;5039748;28;4499;-64
2024/01/01 05:51:59;;;;;;;;;;;;;;;;;;5036976;28;5163;-64
2024/01/01 05:54:25;;;;;;;;;;;;;;;;;;5037278;28;4710;-64
2024/01/01 05:56:50;;;;;;;;;;;;;;;;;;5039915;28;3375;-64
2024/01/01 05:59:15;;;;;;;;;;;;;;;;;;5034979;28;5107;-64
2024/01/01 06:01:41;;;;;;;;;;;;;;;;;;5038120;28;4520;-64
2024/01/01 06:04:06;;;;;;;;;;;;;;;;;;5037816;28;5108;-64
2024/01/01 06:06:31;;;;;;;;;;;;;;;;;;5039119;28;4819;-64
2024/01/01 06:08:56;;;;;;;;;;;;;;;;;;5036811;28;3345;-64
2024/01/01 06:11:22;;;;;;;;;;;;;;;;;;5035378;28;4442;-65
2024/01/01 06:13:47;;;;;;;;;;;;;;;;;;5041812;28;4537;-64
2024/01/01 06:16:15;;;;;;;;;;;;;;;;;;5037380;28;4669;-64
2024/01/01 06:18:41;;;;;;;;;;;;;;;;;;5036180;28;5366;-64
2024/01/01 06:21:06;;;;;;;;;;;;;;;;;;5021234;28;3386;-65
2024/01/01 06:23:31;;;;;;;;;;;;;;;;;;5033691;28;4903;-65
2024/01/01 06:25:57;;;;;;;;;;;;;;;;;;5037127;28;5069;-65
2024/01/01 06:28:22;;;;;;;;;;;;;;;;;;5040345;28;5368;-64
2024/01/01 06:30:47;;;;;;;;;;;;;;;;;;5038948;28;5018;-65
2024/01/01 06:33:13;;;;;;;;;;;;;;;;;;5039590;28;5080;-63
2024/01/01 06:35:38;;;;;;;;;;;;;;;;;;5041887;28;3390;-64
2024/01/01 06:38:04;;;;;;;;;;;;;;;;;;5044099;28;4995;-64
2024/01/01 06:40:29;;;;;;;;;;;;;;;;;;5036457;28;4567;-64
2024/01/01 06:42:54;;;;;;;;;;;;;;;;;;5039164;28;4800;-65
2024/01/01 06:45:20;;;;;;;;;;;;;;;;;;5042245;28;5003;-64
2024/01/01 06:47:45;;;;;;;;;;;;;;;;;;5024498;28;3435;-64
2024/01/01 06:50:10;;;;;;;;;;;;;;;;;;5036690;28;5036;-64
2024/01/01 06:52:35;;;;;;;;;;;;;;;;;;5038803;28;5024;-64
2024/01/01 06:55:01;;;;;;;;;;;;;;;;;;5035558;28;5043;-64
2024/01/01 06:57:26;;;;;;;;;;;;;;;;;;5041171;28;4532;-62
2024/01/01 06:59:51;;;;;;;;;;;;;;;;;;5037369;28;3416;-64
2024/01/01 07:02:17;;;;;;;;;;;;;;;;;;5032360;28;4523;-64
2024/01/01 07:04:42;;;;;;;;;;;;;;;;;;5038887;28;5030;-64
2024/01/01 07:07:08;;;;;;;;;;;;;;;;;;5037828;28;4741;-63
2024/01/01 07:09:33;;;;;;;;;;;;;;;;;;5014622;28;4618;-64
2024/01/01 07:12:00;;;;;;;;;;;;;;;;;;5039691;28;3835;-64
2024/01/01 07:14:26;;;;;;;;;;;;;;;;;;5026428;28;5063;-63
2024/01/01 07:16:54;;;;;;;;;;;;;;;;;;5024106;28;4957;-64
2024/01/01 07:19:20;;;;;;;;;;;;;;;;;;5036188;28;4551;-64
2024/01/01 07:21:46;;;;;;;;;;;;;;;;;;5020883;28;5135;-64
2024/01/01 07:24:12;;;;;;;;;;;;;;;;;;5038655;28;3561;-64
2024/01/01 07:26:37;;;;;;;;;;;;;;;;;;5033173;28;5203;-65
2024/01/01 07:29:02;;;;;;;;;;;;;;;;;;5030490;28;5150;-64
2024/01/01 07:31:28;;;;;;;;;;;;;;;;;;5042727;28;5127;-63
2024/01/01 07:33:53;;;;;;;;;;;;;;;;;;5038551;28;4635;-64
2024/01/01 07:36:18;;;;;;;;;;;;;;;;;;5044629;28;4811;-64
2024/01/01 07:38:44;;;;;;;;;;;;;;;;;;5043572;28;3652;-64
2024/01/01 07:41:09;;;;;;;;;;;;;;;;;;5040242;28;5071;-64
2024/01/01 07:43:34;;;;;;;;;;;;;;;;;;5016617;28;5316;-64
2024/01/01 07:46:00;;;;;;;;;;;;;;;;;;5044149;28;5258;-64
2024/01/01 07:48:26;;;;;;;;;;;;;;;;;;5017898;28;4561;-64
2024/01/01 07:50:51;;;;;;;;;;;;;;;;;;5039454;28;1659;-64
2024/01/01 07:53:16;;;;;;;;;;;;;;;;;;5039611;28;4676;-64
2024/01/01 07:55:42;;;;;;;;;;;;;;;;;;5035477;28;4889;-64
2024/01/01 07:58:07;;;;;;;;;;;;;;;;;;5038384;28;5077;-64
2024/01/01 08:00:32;;;;;;;;;;;;;;;;;;5033635;28;4528;-64
2024/01/01 08:02:58;;;;;;;;;;;;;;;;;;5044995;28;3302;-63
2024/01/01 08:05:23;;;;;;;;;;;;;;;;;;5042085;28;4451;-64
2024/01/01 08:07:49;;;;;;;;;;;;;;;;;;5036281;28;5122;-64
2024/01/01 08:10:15;;;;;;;;;;;;;;;;;;5042100;28;5131;-63
2024/01/01 08:12:40;;;;;;;;;;;;;;;;;;5036062;28;5267;-63
2024/01/01 08:15:06;;;;;;;;;;;;;;;;;;5037160;28;3430;-64
2024/01/01 08:17:31;;;;;;;;;;;;;;;;;;5033561;28;5039;-64
2024/01/01 08:19:56;;;;;;;;;;;;;;;;;;5031866;28;4760;-64
2024/01/01 08:22:21;;;;;;;;;;;;;;;;;;5036413;28;4759;-64
2024/01/01 08:24:47;;;;;;;;;;;;;;;;;;5034580;28;4942;-64
2024/01/01 08:27:12;;;;;;;;;;;;;;;;;;5038639;28;5008;-64
2024/01/01 08:29:37;;;;;;;;;;;;;;;;;;5035842;28;4628;-63
2024/01/01 08:32:03;;;;;;;;;;;;;;;;;;5035384;28;5116;-65
2024/01/01 08:34:31;;;;;;;;;;;;;;;;;;5041426;28;4924;-63
2024/01/01 08:36:56;;;;;;;;;;;;;;;;;;5034107;28;4728;-64
2024/01/01 08:39:22;;;;;;;;;;;;;;;;;;5043181;28;5043;-64
2024/01/01 08:41:47;;;;;;;;;;;;;;;;;;5037028;28;3587;-65
2024/01/01 08:44:13;;;;;;;;;;;;;;;;;;5031954;28;4560;-63
2024/01/01 08:46:38;;;;;;;;;;;;;;;;;;5037112;28;5126;-64
2024/01/01 08:49:03;;;;;;;;;;;;;;;;;;5034269;28;5200;-64
2024/01/01 08:51:29;;;;;;;;;;;;;;;;;;5044453;28;4507;-64
2024/01/01 08:53:55;;;;;;;;;;;;;;;;;;5040441;28;3581;-62
2024/01/01 08:56:21;;;;;;;;;;;;;;;;;;5042088;28;5063;-62
2024/01/01 08:58:46;;;;;;;;;;;;;;;;;;5039961;28;5135;-63
2024/01/01 09:01:11;;;;;;;;;;;;;;;;;;5034248;28;5249;-63
2024/01/01 09:03:40;;;;;;;;;;;;;;;;;;5024662;28;5220;-63
2024/01/01 09:06:05;;;;;;;;;;;;;;;;;;5039111;28;4036;-64
2024/01/01 09:08:30;;;;;;;;;;;;;;;;;;5037206;28;5040;-64
2024/01/01 09:10:56;;;;;;;;;;;;;;;;;;5023026;28;5026;-65
2024/01/01 09:13:22;;;;;;;;;;;;;;;;;;5040164;28;4708;-66
2024/01/01 09:15:47;;;;;;;;;;;;;;;;;;5044876;28;5019;-71
2024/01/01 09:18:12;;;;;;;;;;;;;;;;;;5040961;28;4555;-64
2024/01/01 09:20:41;;;;;;;;;;;;;;;;;;5040780;28;3543;-65
2024/01/01 09:23:06;;;;;;;;;;;;;;;;;;5038315;28;5021;-65
2024/01/01 09:25:31;;;;;;;;;;;;;;;;;;5046076;28;4786;-67
2024/01/01 09:27:57;;;;;;;;;;;;;;;;;;5042753;28;5108;-70
2024/01/01 09:30:22;;;;;;;;;;;;;;;;;;5040725;28;4541;-68
2024/01/01 09:32:47;;;;;;;;;;;;;;;;;;5037372;28;3630;-68
2024/01/01 09:35:12;;;;;;;;;;;;;;;;;;5036116;28;5171;-68
2024/01/01 09:37:38;;;;;;;;;;;;;;;;;;5040352;28;5136;-69
2024/01/01 09:40:04;;;;;;;;;;;;;;;;;;5044509;28;4541;-68
2024/01/01 09:42:29;;;;;;;;;;;;;;;;;;5045820;28;5164;-67
2024/01/01 09:44:54;;;;;;;;;;;;;;;;;;5039677;28;1480;-68
2024/01/01 09:47:20;;;;;;;;;;;;;;;;;;5041211;28;5036;-68
2024/01/01 09:49:45;;;;;;;;;;;;;;;;;;5042631;28;5110;-68
2024/01/01 09:52:16;;;;;;;;;;;;;;;;;;5026884;28;5157;-68
2024/01/01 09:54:41;;;;;;;;;;;;;;;;;;5044917;28;5067;-68
2024/01/01 09:57:07;;;;;;;;;;;;;;;;;;5041513;28;3478;-68
2024/01/01 09:59:33;;;;;;;;;;;;;;;;;;5046495;28;5078;-68
2024/01/01 10:02:03;;;;;;;;;;;;;;;;;;5043578;28;5128;-68
2024/01/01 10:04:28;;;;;;;;;;;;;;;;;;5046864;28;5126;-68
2024/01/01 10:06:58;;;;;;;;;;;;;;;;;;5039683;28;4705;-68
2024/01/01 10:09:24;;;;;;;;;;;;;;;;;;5044323;28;5036;-68
2024/01/01 10:11:49;;;;;;;;;;;;;;;;;;5044035;28;1110;-68
2024/01/01 10:14:15;;;;;;;;;;;;;;;;;;5048340;28;5116;-68
2024/01/01 10:16:41;;;;;;;;;;;;;;;;;;5026574;28;4567;-68
2024/01/01 10:19:07;;;;;;;;;;;;;;;;;;5022773;28;5024;-68
2024/01/01 10:21:37;;;;;;;;;;;;;;;;;;5040780;28;5205;-68
2024/01/01 10:24:15;;;;;;;;;;;;;;;;;;5042528;28;3449;-68
2024/01/01 10:26:44;;;;;;;;;;;;;;;;;;5043164;28;5265;-68
2024/01/01 10:29:10;;;;;;;;;;;;;;;;;;5039757;28;5179;-67
2024/01/01 10:31:35;;;;;;;;;;;;;;;;;;5035960;28;5185;-66
2024/01/01 10:34:03;;;;;;;;;;;;;;;;;;5031099;28;4554;-68
2024/01/01 10:36:28;;;;;;;;;;;;;;;;;;5042347;28;5096;-70
2024/01/01 10:38:53;;;;;;;;;;;;;;;;;;5043560;28;3071;-67
2024/01/01 10:41:19;;;;;;;;;;;;;;;;;;5041360;28;4719;-69
2024/01/01 10:43:45;;;;;;;;;;;;;;;;;;5044593;28;5040;-67
2024/01/01 10:46:11;;;;;;;;;;;;;;;;;;5024334;28;5083;-69
2024/01/01 10:48:36;;;;;;;;;;;;;;;;;;5020856;28;5502;-68
2024/01/01 10:51:05;;;;;;;;;;;;;;;;;;5041045;28;3176;-68
2024/01/01 10:53:49;;;;;;;;;;;;;;;;;;5042215;28;4636;-68
2024/01/01 10:56:33;;;;;;;;;;;;;;;;;;5042341;28;4922;-68
2024/01/01 10:59:31;;;;;;;;;;;;;;;;;;5043442;28;5025;-68
2024/01/01 11:01:56;;;;;;;;;;;;;;;;;;5010435;28;5031;-68
2024/01/01 11:04:22;;;;;;;;;;;;;;;;;;5026525;28;4560;-69
2024/01/01 11:06:47;;;;;;;;;;;;;;;;;;5027907;28;4950;-69
2024/01/01 11:09:19;;;;;;;;;;;;;;;;;;5040108;28;1403;-69
2024/01/01 11:11:47;;;;;;;;;;;;;;;;;;5039913;28;4542;-69
2024/01/01 11:14:22;;;;;;;;;;;;;;;;;;5045234;28;4952;-68
2024/01/01 11:16:48;;;;;;;;;;;;;;;;;;5042764;28;5152;-68
2024/01/01 11:19:30;;;;;;;;;;;;;;;;;;5043924;28;5098;-68
2024/01/01 11:21:56;;;;;;;;;;;;;;;;;;5027325;28;5121;-68
2024/01/01 11:24:45;;;;;;;;;;;;;;;;;;5046698;28;5175;-68
2024/01/01 11:27:28;;;;;;;;;;;;;;;;;;5030707;28;5257;-68
2024/01/01 11:29:58;;;;;;;;;;;;;;;;;;5039195;28;4904;-69
2024/01/01 11:32:24;;;;;;;;;;;;;;;;;;5040362;28;4853;-68
2024/01/01 11:35:22;;;;;;;;;;;;;;;;;;5020661;28;4944;-69
2024/01/01 11:37:48;;;;;;;;;;;;;;;;;;5014500;28;5161;-71
2024/01/01 11:40:13;;;;;;;;;;;;;;;;;;5033308;28;4585;-69
2024/01/01 11:42:38;;;;;;;;;;;;;;;;;;5037792;28;5020;-69
2024/01/01 11:45:17;;;;;;;;;;;;;;;;;;5038082;28;3334;-69
2024/01/01 11:47:42;;;;;;;;;;;;;;;;;;5042404;28;4453;-71
2024/01/01 11:50:08;;;;;;;;;;;;;;;;;;5037027;28;5147;-69
2024/01/01 11:52:33;;;;;;;;;;;;;;;;;;5040209;28;4472;-69
2024/01/01 11:54:59;;;;;;;;;;;;;;;;;;5044999;28;4544;-69
2024/01/01 11:57:24;;;;;;;;;;;;;;;;;;5041461;28;5284;-67
2024/01/01 11:59:49;;;;;;;;;;;;;;;;;;5041948;28;3285;-69
2024/01/01 12:02:15;;;;;;;;;;;;;;;;;;5024975;28;5014;-68
2024/01/01 12:04:41;;;;;;;;;;;;;;;;;;5036744;28;5043;-68
2024/01/01 12:07:06;;;;;;;;;;;;;;;;;;5034624;28;5257;-68
2024/01/01 12:09:32;;;;;;;;;;;;;;;;;;5042370;28;5153;-68
2024/01/01 12:12:06;;;;;;;;;;;;;;;;;;5045365;28;3291;-68
2024/01/01 12:14:31;;;;;;;;;;;;;;;;;;5038695;28;5065;-67
2024/01/01 12:16:57;;;;;;;;;;;;;;;;;;5023235;28;5029;-68
2024/01/01 12:19:23;;;;;;;;;;;;;;;;;;5014613;28;5143;-67
2024/01/01 12:21:49;;;;;;;;;;;;;;;;;;5037147;28;5095;-68
2024/01/01 12:24:18;;;;;;;;;;;;;;;;;;5026605;28;5227;-67
2024/01/01 12:26:48;;;;;;;;;;;;;;;;;;5048959;28;5234;-68
2024/01/01 12:29:14;;;;;;;;;;;;;;;;;;5046607;28;4720;-69
2024/01/01 12:31:40;;;;;;;;;;;;;;;;;;5048659;28;4725;-68
2024/01/01 12:34:07;;;;;;;;;;;;;;;;;;5047498;28;5227;-68
2024/01/01 12:36:33;;;;;;;;;;;;;;;;;;5041507;28;4683;-68
2024/01/01 12:38:58;;;;;;;;;;;;;;;;;;5045891;28;3978;-68
2024/01/01 12:41:24;;;;;;;;;;;;;;;;;;5043939;28;4984;-68
2024/01/01 12:43:49;;;;;;;;;;;;;;;;;;5040517;28;4581;-69
2024/01/01 12:46:14;;;;;;;;;;;;;;;;;;5048957;28;5130;-68
2024/01/01 12:48:46;;;;;;;;;;;;;;;;;;5044888;28;5025;-68
2024/01/01 12:51:20;;;;;;;;;;;;;;;;;;5043509;28;2067;-67
2024/01/01 12:53:45;;;;;;;;;;;;;;;;;;5046369;28;5259;-67
2024/01/01 12:56:11;;;;;;;;;;;;;;;;;;5029511;28;5127;-67
2024/01/01 12:58:42;;;;;;;;;;;;;;;;;;5029718;28;4500;-68
2024/01/01 13:01:10;;;;;;;;;;;;;;;;;;5027124;28;5083;-68
2024/01/01 13:03:35;;;;;;;;;;;;;;;;;;5046198;28;4674;-68
2024/01/01 13:06:01;;;;;;;;;;;;;;;;;;5046171;28;3392;-68
2024/01/01 13:08:26;;;;;;;;;;;;;;;;;;5037565;28;5017;-68
2024/01/01 13:10:51;;;;;;;;;;;;;;;;;;5044150;28;6098;-67
2024/01/01 13:13:16;;;;;;;;;;;;;;;;;;5042334;28;4885;-68
2024/01/01 13:15:42;;;;;;;;;;;;;;;;;;5037373;28;5149;-68
2024/01/01 13:18:07;;;;;;;;;;;;;;;;;;5017796;28;3456;-67
2024/01/01 13:20:33;;;;;;;;;;;;;;;;;;5038871;28;5010;-68
2024/01/01 13:22:58;;;;;;;;;;;;;;;;;;5043077;28;5009;-68
2024/01/01 13:25:24;;;;;;;;;;;;;;;;;;5047779;28;5350;-67
2024/01/01 13:27:51;;;;;;;;;;;;;;;;;;5045941;28;5066;-68
2024/01/01 13:30:16;;;;;;;;;;;;;;;;;;5043621;28;5138;-68
2024/01/01 13:32:43;;;;;;;;;;;;;;;;;;5043063;28;1574;-68
2024/01/01 13:35:08;;;;;;;;;;;;;;;;;;5023313;28;5202;-67
2024/01/01 13:37:33;;;;;;;;;;;;;;;;;;5038304;28;5180;-68
2024/01/01 13:39:59;;;;;;;;;;;;;;;;;;5040254;28;4566;-67
2024/01/01 13:42:24;;;;;;;;;;;;;;;;;;5039851;28;4918;-67
2024/01/01 13:44:49;;;;;;;;;;;;;;;;;;5044566;28;3462;-68
2024/01/01 13:47:15;;;;;;;;;;;;;;;;;;5044791;28;5146;-68
2024/01/01 13:49:40;;;;;;;;;;;;;;;;;;5048508;28;4915;-68
2024/01/01 13:52:05;;;;;;;;;;;;;;;;;;5047507;28;4738;-70
2024/01/01 13:54:31;;;;;;;;;;;;;;;;;;5048360;28;4872;-69
2024/01/01 13:56:56;;;;;;;;;;;;;;;;;;5048282;28;1259;-68
2024/01/01 13:59:21;;;;;;;;;;;;;;;;;;5046517;28;5135;-68
2024/01/01 14:01:47;;;;;;;;;;;;;;;;;;5039440;28;5038;-69
2024/01/01 14:04:12;;;;;;;;;;;;;;;;;;5047686;28;4689;-67
2024/01/01 14:06:40;;;;;;;;;;;;;;;;;;5044802;28;5014;-67
2024/01/01 14:09:07;;;;;;;;;;;;;;;;;;5047587;28;3343;-67
2024/01/01 14:11:35;;;;;;;;;;;;;;;;;;5047886;28;5043;-68
2024/01/01 14:14:00;;;;;;;;;;;;;;;;;;5034983;28;4843;-68
2024/01/01 14:16:25;;;;;;;;;;;;;;;;;;5047222;28;5124;-68
2024/01/01 14:18:50;;;;;;;;;;;;;;;;;;5044533;28;4697;-67
2024/01/01 14:21:16;;;;;;;;;;;;;;;;;;5039682;28;5110;-67
2024/01/01 14:23:41;;;;;;;;;;;;;;;;;;5045718;28;1207;-67
2024/01/01 14:26:06;;;;;;;;;;;;;;;;;;5045084;28;4498;-66
2024/01/01 14:28:32;;;;;;;;;;;;;;;;;;5042529;28;5436;-67
2024/01/01 14:30:57;;;;;;;;;;;;;;;;;;5045600;28;5023;-68
2024/01/01 14:33:22;;;;;;;;;;;;;;;;;;5047060;28;4635;-68
2024/01/01 14:35:47;;;;;;;;;;;;;;;;;;5047563;28;1432;-68
2024/01/01 14:38:13;;;;;;;;;;;;;;;;;;5047646;28;4508;-67
2024/01/01 14:40:38;;;;;;;;;;;;;;;;;;5035649;28;4660;-67
2024/01/01 14:43:05;;;;;;;;;;;;;;;;;;5019736;28;5700;-68
2024/01/01 14:45:30;;;;;;;;;;;;;;;;;;5045389;28;5099;-68
2024/01/01 14:47:55;;;;;;;;;;;;;;;;;;5044787;28;1210;-67
2024/01/01 14:50:21;;;;;;;;;;;;;;;;;;5024431;28;4880;-68
2024/01/01 14:52:46;;;;;;;;;;;;;;;;;;5047449;28;5023;-68
2024/01/01 14:55:11;;;;;;;;;;;;;;;;;;5046480;28;4848;-68
2024/01/01 14:57:37;;;;;;;;;;;;;;;;;;5044883;28;4572;-68
2024/01/01 15:00:04;;;;;;;;;;;;;;;;;;5046233;28;3399;-68
2024/01/01 15:02:31;;;;;;;;;;;;;;;;;;5041497;28;4755;-67
2024/01/01 15:04:57;;;;;;;;;;;;;;;;;;5045638;28;5043;-68
2024/01/01 15:07:23;;;;;;;;;;;;;;;;;;5046059;28;5097;-68
2024/01/01 15:09:48;;;;;;;;;;;;;;;;;;5043692;28;5297;-67
2024/01/01 15:12:13;;;;;;;;;;;;;;;;;;5022064;28;5449;-68
2024/01/01 15:14:39;;;;;;;;;;;;;;;;;;5042498;28;3511;-67
2024/01/01 15:17:05;;;;;;;;;;;;;;;;;;5046607;28;4717;-68
2024/01/01 15:19:31;;;;;;;;;;;;;;;;;;5034289;28;5108;-67
2024/01/01 15:21:57;;;;;;;;;;;;;;;;;;5041917;28;5039;-67
2024/01/01 15:24:23;;;;;;;;;;;;;;;;;;5043025;28;4496;-67
2024/01/01 15:26:49;;;;;;;;;;;;;;;;;;5045236;28;5004;-68
2024/01/01 15:29:14;;;;;;;;;;;;;;;;;;5042792;28;5634;-67
2024/01/01 15:31:40;;;;;;;;;;;;;;;;;;5045359;28;5112;-67
2024/01/01 15:34:05;;;;;;;;;;;;;;;;;;5046851;28;5138;-67
2024/01/01 15:36:30;;;;;;;;;;;;;;;;;;5046884;28;4505;-68
2024/01/01 15:38:56;;;;;;;;;;;;;;;;;;5042235;28;3365;-67
2024/01/01 15:41:21;;;;;;;;;;;;;;;;;;5046805;28;5211;-67
2024/01/01 15:43:46;;;;;;;;;;;;;;;;;;5045138;28;5769;-68
2024/01/01 15:46:12;;;;;;;;;;;;;;;;;;5027098;28;5077;-68
2024/01/01 15:48:37;;;;;;;;;;;;;;;;;;5040433;28;5007;-67
2024/01/01 15:51:03;;;;;;;;;;;;;;;;;;5046129;28;3834;-67
2024/01/01 15:53:29;;;;;;;;;;;;;;;;;;5025505;28;4508;-68
2024/01/01 15:55:54;;;;;;;;;;;;;;;;;;5043190;28;5181;-68
2024/01/01 15:58:20;;;;;;;;;;;;;;;;;;5046869;28;5100;-67
2024/01/01 16:00:45;;;;;;;;;;;;;;;;;;5043401;28;5121;-67
2024/01/01 16:03:10;;;;;;;;;;;;;;;;;;5048546;28;1078;-67
2024/01/01 16:05:36;;;;;;;;;;;;;;;;;;5050872;28;5013;-67
2024/01/01 16:08:01;;;;;;;;;;;;;;;;;;5049532;28;4875;-67
2024/01/01 16:10:26;;;;;;;;;;;;;;;;;;5023005;28;5514;-68
2024/01/01 16:12:52;;;;;;;;;;;;;;;;;;5039391;28;4652;-67
2024/01/01 16:15:17;;;;;;;;;;;;;;;;;;5049472;28;5276;-67
2024/01/01 16:17:42;;;;;;;;;;;;;;;;;;5048420;28;3426;-67
2024/01/01 16:20:10;;;;;;;;;;;;;;;;;;5046637;28;5539;-67
2024/01/01 16:22:37;;;;;;;;;;;;;;;;;;5046015;28;4597;-67
2024/01/01 16:25:02;;;;;;;;;;;;;;;;;;5041121;28;5215;-68
2024/01/01 16:27:27;;;;;;;;;;;;;;;;;;5038788;28;5158;-68
2024/01/01 16:29:53;;;;;;;;;;;;;;;;;;5040498;28;3368;-67
2024/01/01 16:32:18;;;;;;;;;;;;;;;;;;5048087;28;4948;-68
2024/01/01 16:34:45;;;;;;;;;;;;;;;;;;5044810;28;5064;-68
2024/01/01 16:37:10;;;;;;;;;;;;;;;;;;5048190;28;4521;-67
2024/01/01 16:39:35;;;;;;;;;;;;;;;;;;5020165;28;5238;-67
2024/01/01 16:42:00;;;;;;;;;;;;;;;;;;5046113;28;3728;-68
2024/01/01 16:44:30;;;;;;;;;;;;;;;;;;5040902;28;4526;-69
2024/01/01 16:46:55;;;;;;;;;;;;;;;;;;5049586;28;4691;-68
2024/01/01 16:49:20;;;;;;;;;;;;;;;;;;5046181;28;5246;-68
2024/01/01 16:51:48;;;;;;;;;;;;;;;;;;5038546;28;4524;-69
2024/01/01 16:54:13;;;;;;;;;;;;;;;;;;5043361;28;5169;-67